Lincolnton, NC (28093)

6:58 PM EDT on May 27, 2015 (GMT -0400)
Lincolnton | | Change Station
CLOSE
Current Station
Personal Weather Station
Location: Lincolnton, NC
Elevation: 804 ft
Nearby Weather Stations

Elev 804 ft 35.50 °N, 81.27 °W | Updated 8 minutes ago

Clear
Clear
79.5 °F
Feels Like 81 °F
N
0.0
Wind Variable Wind from South

Today
High -- | Low -- °F
--% Chance of Precip.
Yesterday
High -- | Low -- °F
Precip. -- in
6:13 AM 8:31 PM
Waxing Gibbous, 71% visible
Pressure 30.18 in
Visibility 10.0 miles
Clouds Clear
Heat Index 81 °F
Dew Point 64 °F
Humidity 60%
Rainfall 0.05 in
Snow Depth Not available.
UV 2 out of 12
Pollen 3.00 out of 12
Air Quality Not available.
Flu Activity No Activity
METAR KIPJ 272235Z AUTO 21004KT 10SM CLR 27/16 A3018 RMK AO2 T02710162

More Conditions Fewer Conditions

Pressure 30.18 in
Visibility 10.0 miles
Clouds Clear
Heat Index 81 °F
Dew Point 64 °F
Humidity 60%
Rainfall 0.05 in
Snow Depth Not available.
UV 2 out of 12
Pollen 3.00 out of 12
Air Quality Not available.
Flu Activity No Activity
METAR KIPJ 272235Z AUTO 21004KT 10SM CLR 27/16 A3018 RMK AO2 T02710162

More Conditions Fewer Conditions

10-Day Weather Forecast

Almanac

Astronomy

May. 27, 2015 Rise Set
Actual Time
Civil Twilight
Nautical Twilight
Astronomical Twilight
Moon
Length of Visible Light
Length of Day
Tomorrow will be .
, % of the Moon is Illuminated

Today's Extremes

State Highs State Lows

Community

WunderPhotos

Upload Photos

1,824,814 photos uploaded!

WunderBlogs® & News

Nearby

Air Quality

  Air Quality AQ Index Pollutant
Not available.

Snow Depth

Station Depth Elevation

Earthquake Activity

City Distance Mag. Time & Date
Minimum magnitude displayed is 2.5.

Coastal Water Temperatures

Place Temperature

Stations

Nearby Weather Stations

Station Location Temp. Windchill Dew Point Humidity Wind Precip. Elev Updated Type